Time;durP1;ratioP1;P1;durP2;ratioP2;P2;SDS_P1;SDS_P2;PMS_P1;PMS_P2;Temp;Humidity;BMP_temperature;BMP_pressure;BME280_temperature;BME280_humidity;BME280_pressure;Samples;Min_cycle;Max_cycle;Signal;HPM_P1;HPM_P2
2022/10/05 00:02:18;;;;;;;6.93;3.95;;;;;;;5.26;77.24;94299.00;5086199;28;20027;-34
2022/10/05 00:04:43;;;;;;;3.22;2.95;;;;;;;5.26;77.15;94299.72;5065478;28;20020;-34
2022/10/05 00:07:14;;;;;;;2.38;2.28;;;;;;;5.22;76.93;94301.19;5081364;28;20028;-34
2022/10/05 00:09:40;;;;;;;1.02;1.02;;;;;;;5.08;77.56;94310.38;5089055;28;20027;-34
2022/10/05 00:12:19;;;;;;;1.30;1.27;;;;;;;5.13;77.13;94310.38;5083592;28;20389;-34
2022/10/05 00:14:47;;;;;;;0.85;0.85;;;;;;;5.08;76.58;94311.13;5077517;28;20485;-34
2022/10/05 00:17:16;;;;;;;3.35;3.13;;;;;;;5.22;75.81;94312.13;5089825;28;20024;-34
2022/10/05 00:19:41;;;;;;;;;;;;;;;5.12;75.98;94303.41;5073767;28;20028;-34
2022/10/05 00:22:17;;;;;;;0.98;0.98;;;;;;;5.12;75.64;94305.41;5089534;28;19912;-34
2022/10/05 00:24:43;;;;;;;1.42;1.33;;;;;;;5.05;75.97;94306.63;5088977;28;20020;-34
2022/10/05 00:27:36;;;;;;;0.60;0.60;;;;;;;5.08;75.73;94299.41;5081003;28;20035;-34
2022/10/05 00:30:13;;;;;;;2.58;2.38;;;;;;;4.97;76.48;94311.06;5077967;28;20503;-34
2022/10/05 00:32:39;;;;;;;1.20;1.17;;;;;;;4.96;76.98;94300.63;5083720;28;20108;-34
2022/10/05 00:35:05;;;;;;;0.73;0.73;;;;;;;4.91;77.80;94309.56;5076815;28;20119;-34
2022/10/05 00:37:30;;;;;;;0.30;0.30;;;;;;;4.97;77.29;94313.81;5085428;28;20025;-34
2022/10/05 00:39:56;;;;;;;0.30;0.30;;;;;;;4.94;77.72;94317.53;5086935;28;20025;-34
2022/10/05 00:42:24;;;;;;;2.15;2.05;;;;;;;5.00;76.84;94304.59;5081672;28;20027;-34
2022/10/05 00:45:12;;;;;;;0.52;0.52;;;;;;;5.05;76.61;94308.59;5084697;28;20039;-34
2022/10/05 00:47:56;;;;;;;1.88;0.55;;;;;;;4.93;76.76;94310.56;5074599;28;20527;-34
2022/10/05 00:50:29;;;;;;;0.38;0.38;;;;;;;4.83;76.67;94306.53;5085517;28;20020;-34
2022/10/05 00:52:54;;;;;;;0.30;0.30;;;;;;;4.75;76.76;94300.03;5060885;28;20031;-34
2022/10/05 00:55:32;;;;;;;0.85;0.85;;;;;;;4.84;76.19;94301.81;5084473;28;20441;-34
2022/10/05 00:58:16;;;;;;;1.23;1.23;;;;;;;4.89;75.93;94304.59;5083779;28;20059;-34
2022/10/05 01:01:07;;;;;;;3.78;3.22;;;;;;;4.77;77.17;94318.69;5081281;28;20055;-34
2022/10/05 01:03:57;;;;;;;0.68;0.68;;;;;;;4.84;77.19;94323.69;5071214;28;20040;-34
2022/10/05 01:06:33;;;;;;;1.17;1.17;;;;;;;4.70;77.86;94328.09;5081269;28;20031;-34
2022/10/05 01:09:13;;;;;;;1.15;1.15;;;;;;;4.71;76.86;94334.31;5085635;28;20032;-34
2022/10/05 01:11:42;;;;;;;1.42;1.00;;;;;;;4.70;76.95;94332.84;5065517;28;20157;-34
2022/10/05 01:14:29;;;;;;;0.60;0.60;;;;;;;4.66;76.54;94340.53;5060953;28;20121;-34
2022/10/05 01:17:00;;;;;;;0.50;0.50;;;;;;;4.61;76.55;94342.72;5066909;28;20050;-34
2022/10/05 01:19:41;;;;;;;0.30;0.30;;;;;;;4.69;76.41;94345.00;5078843;28;20032;-34
2022/10/05 01:22:25;;;;;;;0.30;0.30;;;;;;;4.54;76.00;94339.69;5082409;28;20024;-34
2022/10/05 01:25:25;;;;;;;0.30;0.30;;;;;;;4.53;75.60;94344.41;5083529;28;20127;-34
2022/10/05 01:28:05;;;;;;;0.43;0.43;;;;;;;4.35;77.37;94338.59;5084817;28;20031;-34
2022/10/05 01:30:37;;;;;;;0.45;0.45;;;;;;;4.34;77.46;94335.09;5085937;28;20528;-34
2022/10/05 01:33:21;;;;;;;0.55;0.55;;;;;;;4.47;77.51;94345.63;5061794;28;20161;-34
2022/10/05 01:36:09;;;;;;;1.10;1.10;;;;;;;4.56;77.42;94343.44;5081011;28;20431;-34
2022/10/05 01:39:02;;;;;;;0.65;0.65;;;;;;;4.46;77.98;94328.44;5082370;28;20023;-34
2022/10/05 01:41:41;;;;;;;0.70;0.70;;;;;;;4.69;77.02;94345.00;5060322;28;20077;-34
2022/10/05 01:44:12;;;;;;;1.95;1.85;;;;;;;4.59;76.46;94350.66;5084364;28;20031;-34
2022/10/05 01:46:44;;;;;;;1.15;1.15;;;;;;;4.58;76.73;94351.91;5069268;28;20028;-34
2022/10/05 01:49:28;;;;;;;4.85;2.20;;;;;;;4.55;76.21;94347.41;5063269;28;20066;-34
2022/10/05 01:51:56;;;;;;;0.77;0.77;;;;;;;4.33;76.08;94352.00;5083378;28;20036;-34
2022/10/05 01:54:37;;;;;;;0.67;0.67;;;;;;;4.20;76.03;94355.09;5078100;28;20047;-34
2022/10/05 01:57:26;;;;;;;0.77;0.77;;;;;;;4.18;75.64;94365.06;5075080;28;20130;-34
2022/10/05 02:00:10;;;;;;;0.20;0.20;;;;;;;4.05;76.05;94365.41;5062689;28;20016;-34
2022/10/05 02:02:39;;;;;;;0.93;0.93;;;;;;;4.08;76.01;94367.19;5082608;28;20427;-34
2022/10/05 02:05:09;;;;;;;0.30;0.30;;;;;;;3.99;76.57;94370.09;5065156;28;20036;-34
2022/10/05 02:07:36;;;;;;;0.32;0.32;;;;;;;4.01;76.38;94377.81;5062722;28;20116;-34
2022/10/05 02:10:29;;;;;;;0.40;0.40;;;;;;;3.98;76.37;94378.78;5085366;28;20050;-34
2022/10/05 02:12:59;;;;;;;0.30;0.30;;;;;;;4.10;75.82;94378.41;5072731;28;20507;-34
2022/10/05 02:15:31;;;;;;;0.30;0.30;;;;;;;4.20;75.16;94376.97;5074211;28;20051;-34
2022/10/05 02:18:06;;;;;;;0.75;0.75;;;;;;;4.16;76.29;94373.72;5072093;28;20024;-34
2022/10/05 02:20:34;;;;;;;1.55;1.48;;;;;;;4.18;76.90;94379.44;5069291;28;20439;-34
2022/10/05 02:23:04;;;;;;;3.92;3.65;;;;;;;3.89;77.23;94366.03;5065166;28;20031;-34
2022/10/05 02:25:33;;;;;;;1.77;1.67;;;;;;;3.88;78.18;94377.47;5063358;28;20044;-34
2022/10/05 02:28:32;;;;;;;4.72;4.05;;;;;;;3.93;77.82;94371.28;5062151;28;20089;-34
2022/10/05 02:31:04;;;;;;;0.40;0.40;;;;;;;3.98;77.09;94371.34;5060590;28;20060;-34
2022/10/05 02:33:32;;;;;;;0.43;0.43;;;;;;;3.93;76.31;94343.97;5061963;28;20075;-34
2022/10/05 02:36:12;;;;;;;0.65;0.65;;;;;;;3.94;76.71;94379.00;5090720;28;20403;-34
2022/10/05 02:39:08;;;;;;;0.30;0.30;;;;;;;3.88;77.36;94386.38;5068052;28;20024;-34
2022/10/05 02:42:07;;;;;;;0.20;0.20;;;;;;;3.97;76.22;94380.75;5071393;28;20056;-34
2022/10/05 02:44:35;;;;;;;0.77;0.77;;;;;;;3.91;76.69;94382.69;5083131;28;20016;-34
2022/10/05 02:47:28;;;;;;;0.80;0.80;;;;;;;3.76;76.35;94379.31;5087828;28;20016;-34
2022/10/05 02:50:11;;;;;;;0.30;0.30;;;;;;;3.73;76.45;94383.00;5082898;28;20503;-34
2022/10/05 02:52:56;;;;;;;0.43;0.43;;;;;;;3.77;76.59;94383.53;5087332;28;20095;-34
2022/10/05 02:55:54;;;;;;;0.25;0.25;;;;;;;3.73;76.33;94385.75;5069103;28;20024;-34
2022/10/05 02:58:24;;;;;;;0.38;0.38;;;;;;;3.78;76.37;94396.75;5074730;28;20036;-34
2022/10/05 03:01:02;;;;;;;0.52;0.52;;;;;;;3.79;75.82;94387.28;5063993;28;20020;-34
2022/10/05 03:03:37;;;;;;;0.40;0.40;;;;;;;3.81;76.80;94375.91;5066536;28;20020;-34
2022/10/05 03:06:12;;;;;;;1.13;1.13;;;;;;;3.77;77.61;94386.28;5066835;28;20531;-34
2022/10/05 03:08:41;;;;;;;0.68;0.68;;;;;;;3.78;77.45;94390.53;5067857;28;20024;-34
2022/10/05 03:11:14;;;;;;;0.30;0.30;;;;;;;3.91;77.07;94395.59;5065962;28;20024;-34
2022/10/05 03:13:47;;;;;;;0.95;0.95;;;;;;;3.91;77.27;94393.63;5076617;28;20036;-34
2022/10/05 03:16:28;;;;;;;1.30;1.30;;;;;;;3.76;77.32;94392.97;5092369;28;20388;-34
2022/10/05 03:19:21;;;;;;;1.70;1.60;;;;;;;3.89;76.75;94396.09;5082996;28;20673;-34
2022/10/05 03:22:41;;;;;;;0.50;0.50;;;;;;;3.78;77.28;94393.25;5082277;28;20031;-34
2022/10/05 03:25:44;;;;;;;1.02;1.02;;;;;;;3.65;76.80;94407.28;5043728;28;20039;-34
2022/10/05 03:28:26;;;;;;;0.43;0.43;;;;;;;3.54;77.28;94406.41;5078763;28;20073;-34
2022/10/05 03:31:02;;;;;;;0.30;0.30;;;;;;;3.54;76.90;94403.66;5064878;28;20051;-34
2022/10/05 03:33:47;;;;;;;0.20;0.20;;;;;;;3.57;77.17;94400.00;5070210;28;20042;-34
2022/10/05 03:36:20;;;;;;;0.28;0.28;;;;;;;3.54;77.61;94409.13;5057967;28;20020;-34
2022/10/05 03:39:01;;;;;;;0.20;0.20;;;;;;;3.62;77.73;94408.22;5089032;28;20020;-34
2022/10/05 03:41:41;;;;;;;0.30;0.30;;;;;;;3.64;77.25;94403.03;5088194;28;20458;-34
2022/10/05 03:44:29;;;;;;;0.73;0.73;;;;;;;3.56;77.28;94410.16;5087921;28;20016;-34
2022/10/05 03:47:14;;;;;;;0.30;0.30;;;;;;;3.59;77.24;94405.72;5060737;28;20071;-34
2022/10/05 03:49:48;;;;;;;0.30;0.30;;;;;;;3.59;77.76;94411.19;5063418;28;20047;-34
2022/10/05 03:52:16;;;;;;;0.47;0.47;;;;;;;3.55;77.38;94418.84;5081417;28;20499;-34
2022/10/05 03:54:55;;;;;;;1.48;1.38;;;;;;;3.50;78.26;94428.47;5076026;28;20058;-34
2022/10/05 03:57:24;;;;;;;0.30;0.30;;;;;;;3.55;78.07;94422.28;5081783;28;20034;-34
2022/10/05 04:00:07;;;;;;;0.20;0.20;;;;;;;3.54;77.96;94433.69;5072625;28;20106;-34
2022/10/05 04:02:40;;;;;;;0.47;0.47;;;;;;;3.56;78.22;94429.28;5071867;28;20024;-34
2022/10/05 04:05:09;;;;;;;0.77;0.73;;;;;;;3.53;78.27;94435.69;5071016;28;20028;-34
2022/10/05 04:07:42;;;;;;;0.30;0.30;;;;;;;3.53;78.46;94438.41;5084872;28;20525;-34
2022/10/05 04:10:24;;;;;;;0.55;0.55;;;;;;;3.56;78.16;94429.28;5084475;28;20036;-34
2022/10/05 04:12:56;;;;;;;0.30;0.30;;;;;;;3.38;78.72;94434.28;5062435;28;20054;-34
2022/10/05 04:15:27;;;;;;;0.20;0.20;;;;;;;3.45;79.14;94431.13;5065760;28;20036;-34
2022/10/05 04:18:15;;;;;;;0.63;0.63;;;;;;;3.38;79.07;94426.09;5068657;28;20032;-34
2022/10/05 04:20:44;;;;;;;1.25;1.25;;;;;;;3.47;79.35;94434.88;5070825;28;20552;-34
2022/10/05 04:23:09;;;;;;;2.45;2.25;;;;;;;3.49;79.39;94437.09;5083996;28;20059;-34
2022/10/05 04:25:50;;;;;;;0.20;0.20;;;;;;;3.40;78.24;94445.47;5088636;28;20106;-34
2022/10/05 04:28:26;;;;;;;0.47;0.47;;;;;;;3.40;79.64;94440.72;5069671;28;20019;-34
2022/10/05 04:30:52;;;;;;;0.22;0.22;;;;;;;3.44;78.75;94446.75;5065431;28;20040;-34
2022/10/05 04:33:19;;;;;;;0.20;0.20;;;;;;;3.48;78.07;94452.00;5082411;28;20120;-34
2022/10/05 04:35:47;;;;;;;1.02;1.02;;;;;;;3.44;77.02;94454.19;5083050;28;20020;-34
2022/10/05 04:38:25;;;;;;;0.30;0.30;;;;;;;3.47;76.85;94448.50;5082120;28;20535;-34
2022/10/05 04:41:11;;;;;;;1.27;1.00;;;;;;;3.33;77.83;94451.31;5088134;28;20030;-34
2022/10/05 04:44:02;;;;;;;0.20;0.20;;;;;;;3.48;78.59;94454.72;5083979;28;20012;-34
2022/10/05 04:46:42;;;;;;;0.52;0.52;;;;;;;3.41;78.84;94455.13;5081949;28;20032;-34
2022/10/05 04:49:43;;;;;;;0.45;0.45;;;;;;;3.39;77.97;94463.81;5085480;28;20024;-34
2022/10/05 04:52:40;;;;;;;0.30;0.30;;;;;;;3.29;79.41;94464.44;5054083;28;20035;-34
2022/10/05 04:55:09;;;;;;;0.50;0.50;;;;;;;3.43;78.69;94469.81;5049020;28;20040;-34
2022/10/05 04:57:40;;;;;;;0.30;0.30;;;;;;;3.53;78.17;94473.91;5076920;28;20031;-34
2022/10/05 05:00:12;;;;;;;0.65;0.65;;;;;;;3.43;78.07;94477.25;5067825;28;20036;-34
2022/10/05 05:02:51;;;;;;;0.50;0.50;;;;;;;3.40;78.49;94483.69;5083873;28;20491;-34
2022/10/05 05:05:19;;;;;;;0.77;0.77;;;;;;;3.29;79.84;94478.81;5058865;28;20082;-34
2022/10/05 05:08:06;;;;;;;0.40;0.40;;;;;;;3.34;79.66;94482.84;5084465;28;20107;-34
2022/10/05 05:10:40;;;;;;;0.65;0.65;;;;;;;3.44;78.84;94479.53;5087805;28;20042;-34
2022/10/05 05:13:24;;;;;;;0.30;0.30;;;;;;;3.39;79.19;94479.44;5084132;28;20020;-34
2022/10/05 05:16:01;;;;;;;0.40;0.40;;;;;;;3.47;79.04;94481.28;5060690;28;20029;-34
2022/10/05 05:18:39;;;;;;;0.20;0.20;;;;;;;3.64;79.03;94484.19;5065295;28;20029;-34
2022/10/05 05:21:20;;;;;;;0.50;0.50;;;;;;;3.83;78.99;94480.69;5080793;28;20467;-34
2022/10/05 05:24:15;;;;;;;0.40;0.40;;;;;;;3.96;77.70;94485.84;5086463;28;20024;-34
2022/10/05 05:27:16;;;;;;;0.30;0.30;;;;;;;4.06;77.54;94489.91;5078507;28;20023;-34
2022/10/05 05:29:57;;;;;;;0.57;0.57;;;;;;;4.21;76.78;94493.28;5089490;28;20040;-34
2022/10/05 05:32:34;;;;;;;1.23;1.23;;;;;;;4.23;76.71;94501.00;5086381;28;20024;-34
2022/10/05 05:35:29;;;;;;;2.15;2.05;;;;;;;4.36;76.91;94498.63;5060321;28;20032;-34
2022/10/05 05:38:15;;;;;;;6.85;3.08;;;;;;;4.41;76.91;94503.41;5083277;28;20062;-34
2022/10/05 05:40:51;;;;;;;2.05;1.88;;;;;;;4.45;77.06;94506.69;5086391;28;20024;-34
2022/10/05 05:43:24;;;;;;;0.47;0.47;;;;;;;4.60;76.68;94501.84;5085830;28;20488;-34
2022/10/05 05:46:03;;;;;;;0.30;0.30;;;;;;;4.61;75.85;94519.75;5078761;28;20040;-34
2022/10/05 05:48:40;;;;;;;0.93;0.90;;;;;;;4.63;76.54;94511.06;5063628;28;20503;-34
2022/10/05 05:51:24;;;;;;;2.65;2.45;;;;;;;4.58;76.82;94520.72;5060762;28;20024;-34
2022/10/05 05:54:15;;;;;;;1.63;1.52;;;;;;;4.56;76.81;94514.97;5086038;28;20029;-34
2022/10/05 05:56:50;;;;;;;0.75;0.75;;;;;;;4.52;78.00;94523.41;5063237;28;20133;-34
2022/10/05 05:59:37;;;;;;;0.85;0.85;;;;;;;4.56;78.63;94526.69;5070909;28;20500;-34
2022/10/05 06:02:10;;;;;;;0.30;0.30;;;;;;;4.61;78.26;94520.50;5064498;28;20016;-34
2022/10/05 06:04:44;;;;;;;0.47;0.47;;;;;;;4.81;78.48;94524.41;5084067;28;20385;-34
2022/10/05 06:07:14;;;;;;;0.30;0.30;;;;;;;4.95;77.21;94531.72;5061275;28;20047;-34
2022/10/05 06:09:45;;;;;;;1.23;0.95;;;;;;;5.06;76.43;94532.56;5072046;28;20028;-34
2022/10/05 06:12:35;;;;;;;0.20;0.20;;;;;;;5.02;77.06;94532.03;5059854;28;20411;-34
2022/10/05 06:15:13;;;;;;;0.30;0.30;;;;;;;5.27;78.12;94539.41;5052048;28;20040;-34
2022/10/05 06:17:44;;;;;;;0.28;0.28;;;;;;;5.56;76.51;94535.63;5086443;28;20016;-34
2022/10/05 06:20:43;;;;;;;0.30;0.30;;;;;;;6.08;76.39;94539.63;5066761;28;20503;-34
2022/10/05 06:23:52;;;;;;;0.30;0.30;;;;;;;6.40;74.38;94542.19;5028149;28;20040;-34
2022/10/05 06:26:24;;;;;;;;;;;;;;;6.55;73.11;94534.50;5081771;28;20044;-34
2022/10/05 06:28:59;;;;;;;0.70;0.70;;;;;;;6.86;73.04;94542.53;5077863;28;19920;-34
2022/10/05 06:31:51;;;;;;;1.35;1.27;;;;;;;6.90;73.43;94510.09;5060595;28;20539;-34
2022/10/05 06:34:24;;;;;;;1.25;1.15;;;;;;;7.35;72.68;94543.75;5063767;28;20028;-35
2022/10/05 06:36:52;;;;;;;0.77;0.77;;;;;;;7.55;72.35;94548.97;5064164;28;20040;-34
2022/10/05 06:39:27;;;;;;;0.20;0.20;;;;;;;7.71;71.97;94552.97;5065537;28;20126;-34
2022/10/05 06:42:22;;;;;;;1.65;1.42;;;;;;;7.73;72.09;94551.22;5084639;28;20029;-34
2022/10/05 06:45:01;;;;;;;0.45;0.45;;;;;;;7.60;72.89;94548.25;5065245;28;20028;-34
2022/10/05 06:47:33;;;;;;;0.83;0.83;;;;;;;7.63;73.33;94547.97;5086301;28;20102;-34
2022/10/05 06:50:26;;;;;;;0.57;0.57;;;;;;;7.75;73.53;94536.94;5086957;28;20510;-34
2022/10/05 06:52:55;;;;;;;0.30;0.30;;;;;;;7.97;74.64;94567.88;5081905;28;20052;-34
2022/10/05 06:55:45;;;;;;;0.70;0.70;;;;;;;8.05;74.97;94570.84;5078071;28;20043;-34
2022/10/05 06:58:40;;;;;;;1.27;1.23;;;;;;;8.04;75.09;94575.59;5084310;28;20119;-35
2022/10/05 07:01:14;;;;;;;1.95;1.85;;;;;;;8.03;76.39;94578.88;5069967;28;20038;-34
2022/10/05 07:03:58;;;;;;;1.40;1.30;;;;;;;8.08;76.74;94580.81;5081341;28;20038;-34
2022/10/05 07:06:37;;;;;;;1.55;1.45;;;;;;;8.18;76.52;94582.06;5078789;28;20036;-34
2022/10/05 07:09:10;;;;;;;;;;;;;;;8.23;77.38;94562.00;5064074;28;20056;-34
2022/10/05 07:11:36;;;;;;;0.52;0.52;;;;;;;8.29;77.66;94563.53;5072339;28;19989;-34
2022/10/05 07:14:29;;;;;;;1.13;0.95;;;;;;;8.45;77.77;94563.94;5078874;28;20131;-34
2022/10/05 07:17:01;;;;;;;1.95;1.85;;;;;;;8.40;78.41;94555.22;5080797;28;20031;-34
2022/10/05 07:19:51;;;;;;;1.52;1.48;;;;;;;8.85;78.22;94571.50;5087361;28;20027;-34
2022/10/05 07:22:57;;;;;;;0.38;0.38;;;;;;;9.42;78.18;94562.31;5086074;28;20107;-34
2022/10/05 07:25:29;;;;;;;2.33;1.23;;;;;;;10.34;74.93;94558.38;5087273;28;20035;-35
2022/10/05 07:28:18;;;;;;;3.83;1.83;;;;;;;11.45;71.09;94554.75;5085556;28;20515;-35
2022/10/05 07:30:52;;;;;;;;;;;;;;;12.33;65.60;94560.75;5069019;28;20575;-35
2022/10/05 07:33:32;;;;;;;1.20;1.15;;;;;;;13.14;64.90;94550.47;5085572;28;20006;-35
2022/10/05 07:39:10;;;;;;;0.40;0.40;;;;;;;14.78;58.42;94551.50;5086889;28;20096;-35
2022/10/05 07:41:43;;;;;;;0.70;0.70;;;;;;;15.24;56.01;94557.97;5072307;28;20088;-35
2022/10/05 07:44:18;;;;;;;0.70;0.70;;;;;;;14.73;56.47;94557.19;5086601;28;20032;-35
2022/10/05 07:46:55;;;;;;;0.50;0.50;;;;;;;15.15;55.70;94559.25;5064525;28;20024;-35
2022/10/05 07:50:07;;;;;;;0.43;0.43;;;;;;;15.87;53.93;94561.78;5080277;28;20038;-35
2022/10/05 07:52:36;;;;;;;0.93;0.60;;;;;;;16.01;53.33;94559.53;4993186;28;20088;-35
2022/10/05 07:55:22;;;;;;;1.23;1.17;;;;;;;15.87;53.48;94568.06;4997619;28;20062;-35
2022/10/05 07:58:11;;;;;;;0.30;0.30;;;;;;;15.83;56.03;94562.13;5035361;28;20063;-35
2022/10/05 08:01:07;;;;;;;1.08;0.85;;;;;;;16.18;52.89;94571.59;5069105;28;20031;-35
2022/10/05 08:03:58;;;;;;;4.85;1.80;;;;;;;16.53;51.94;94583.84;5069122;28;20441;-35
2022/10/05 08:06:48;;;;;;;0.98;0.90;;;;;;;16.11;52.36;94575.16;5056430;28;20681;-35
2022/10/05 08:09:22;;;;;;;1.30;1.20;;;;;;;15.97;51.66;94576.63;5086213;28;20046;-35
2022/10/05 08:12:00;;;;;;;2.85;0.85;;;;;;;15.38;54.40;94575.22;5080073;28;20186;-34
2022/10/05 08:14:46;;;;;;;1.35;0.88;;;;;;;15.48;54.83;94581.78;5062614;28;20031;-35
2022/10/05 08:17:26;;;;;;;0.40;0.40;;;;;;;15.44;55.40;94584.91;5077413;28;20028;-34
2022/10/05 08:20:16;;;;;;;1.00;0.95;;;;;;;15.25;57.67;94586.50;5078019;28;20167;-35
2022/10/05 08:22:46;;;;;;;1.65;1.55;;;;;;;15.96;55.98;94583.47;5084503;28;20557;-35
2022/10/05 08:25:56;;;;;;;0.50;0.50;;;;;;;16.61;53.64;94582.50;5088220;28;20066;-35
2022/10/05 08:28:29;;;;;;;0.77;0.77;;;;;;;16.99;51.56;94576.09;5086420;28;20024;-35
2022/10/05 08:31:10;;;;;;;0.30;0.30;;;;;;;17.08;51.89;94575.50;5061997;28;20049;-35
2022/10/05 08:33:59;;;;;;;0.50;0.50;;;;;;;17.28;50.14;94580.06;5076718;28;20025;-35
2022/10/05 08:36:45;;;;;;;0.32;0.32;;;;;;;17.74;48.13;94561.75;5051815;28;20032;-35
2022/10/05 08:39:16;;;;;;;0.20;0.20;;;;;;;17.99;48.80;94570.13;5064892;28;20515;-35
2022/10/05 08:41:51;;;;;;;3.10;1.80;;;;;;;18.11;49.70;94569.09;5066949;28;20103;-35
2022/10/05 08:44:52;;;;;;;0.10;0.10;;;;;;;18.82;48.23;94566.56;5062981;28;20528;-35
2022/10/05 08:47:47;;;;;;;0.10;0.10;;;;;;;19.20;47.07;94561.28;5087255;28;20462;-35
2022/10/05 08:50:13;;;;;;;0.25;0.25;;;;;;;19.65;44.36;94565.53;5065395;28;20033;-35
2022/10/05 08:52:53;;;;;;;0.75;0.75;;;;;;;19.40;45.14;94562.16;5082557;28;20034;-35
2022/10/05 08:55:28;;;;;;;0.40;0.40;;;;;;;19.46;45.61;94552.19;5086519;28;20020;-35
2022/10/05 08:57:58;;;;;;;0.40;0.40;;;;;;;20.45;43.05;94557.00;5066601;28;20017;-36
2022/10/05 09:01:06;;;;;;;0.55;0.55;;;;;;;20.74;40.22;94557.78;5085140;28;20032;-36
2022/10/05 09:03:59;;;;;;;0.68;0.50;;;;;;;20.49;40.52;94554.50;5075955;28;20024;-35
2022/10/05 09:07:02;;;;;;;0.30;0.30;;;;;;;20.27;39.71;94555.66;5077732;28;20559;-35
2022/10/05 09:09:43;;;;;;;0.40;0.40;;;;;;;20.71;40.23;94546.97;5086840;28;20020;-36
2022/10/05 09:12:30;;;;;;;0.20;0.20;;;;;;;21.37;39.27;94554.69;5084002;28;20016;-36
2022/10/05 09:15:23;;;;;;;1.60;0.88;;;;;;;22.35;36.83;94549.63;5086327;28;20027;-35
2022/10/05 09:18:30;;;;;;;0.28;0.25;;;;;;;22.31;35.98;94543.72;5081837;28;20016;-36
2022/10/05 09:21:37;;;;;;;0.10;0.10;;;;;;;23.52;33.50;94542.56;5057108;28;20059;-36
2022/10/05 09:24:15;;;;;;;0.03;0.03;;;;;;;24.10;32.61;94543.41;5022514;28;20035;-36
2022/10/05 09:26:43;;;;;;;0.10;0.10;;;;;;;24.64;30.60;94549.53;5066721;28;20024;-36
2022/10/05 09:29:18;;;;;;;0.13;0.13;;;;;;;24.16;29.88;94543.03;5059004;28;20090;-37
2022/10/05 09:31:54;;;;;;;0.03;0.03;;;;;;;23.34;31.51;94556.22;5079504;28;20433;-36
2022/10/05 09:34:44;;;;;;;0.10;0.10;;;;;;;23.20;32.28;94558.81;5059063;28;20024;-35
2022/10/05 09:37:31;;;;;;;0.75;0.55;;;;;;;24.04;30.83;94549.41;5065879;28;20031;-35
2022/10/05 09:40:24;;;;;;;0.17;0.17;;;;;;;24.33;29.94;94551.88;5086633;28;20067;-36
2022/10/05 09:43:11;;;;;;;0.22;0.22;;;;;;;24.25;30.40;94540.09;5083991;28;20545;-36
2022/10/05 09:45:47;;;;;;;0.20;0.20;;;;;;;25.05;28.68;94547.00;5083409;28;20024;-36
2022/10/05 09:48:43;;;;;;;4.10;0.95;;;;;;;25.17;28.27;94552.59;5082038;28;20032;-36
2022/10/05 09:51:33;;;;;;;0.20;0.20;;;;;;;25.39;27.68;94554.59;5083030;28;20028;-36
2022/10/05 09:54:24;;;;;;;0.63;0.63;;;;;;;25.13;27.16;94544.63;5085161;28;20043;-36
2022/10/05 09:57:21;;;;;;;0.57;0.57;;;;;;;25.50;27.34;94558.75;5082632;28;20040;-36
2022/10/05 09:59:56;;;;;;;0.00;0.00;;;;;;;26.00;26.21;94552.31;5066505;28;20047;-36
2022/10/05 10:02:37;;;;;;;0.20;0.20;;;;;;;26.57;26.73;94556.09;5082927;28;20047;-36
2022/10/05 10:05:15;;;;;;;0.00;0.00;;;;;;;26.84;25.74;94544.75;5066924;28;20034;-36
2022/10/05 10:08:19;;;;;;;0.13;0.13;;;;;;;27.00;25.49;94551.25;5083256;28;20112;-36
2022/10/05 10:11:10;;;;;;;0.30;0.30;;;;;;;27.60;24.02;94545.00;5064784;28;20024;-36
2022/10/05 10:14:00;;;;;;;0.10;0.10;;;;;;;27.32;24.62;94555.69;5082141;28;20408;-36
2022/10/05 10:16:48;;;;;;;0.10;0.10;;;;;;;27.30;23.82;94554.84;5077016;28;20029;-36
2022/10/05 10:19:33;;;;;;;0.10;0.10;;;;;;;26.23;25.79;94560.66;5084027;28;20130;-36
2022/10/05 10:22:29;;;;;;;0.20;0.20;;;;;;;27.36;25.61;94558.00;5064808;28;20392;-36
2022/10/05 10:25:00;;;;;;;0.10;0.10;;;;;;;27.89;23.67;94549.94;5077288;28;20081;-36
2022/10/05 10:27:44;;;;;;;0.10;0.10;;;;;;;27.61;24.15;94558.56;5083861;28;20024;-36
2022/10/05 10:30:31;;;;;;;0.30;0.30;;;;;;;27.34;23.33;94549.38;5087212;28;20458;-36
2022/10/05 10:32:57;;;;;;;0.00;0.00;;;;;;;26.78;24.44;94547.28;5082389;28;20117;-36
2022/10/05 10:35:57;;;;;;;0.10;0.10;;;;;;;26.06;24.59;94546.97;5078462;28;20118;-36
2022/10/05 10:38:39;;;;;;;0.10;0.10;;;;;;;25.43;26.32;94537.16;5068794;28;20036;-36
2022/10/05 10:41:22;;;;;;;0.30;0.30;;;;;;;25.76;27.46;94537.59;5083894;28;20051;-36
2022/10/05 10:44:15;;;;;;;1.55;0.57;;;;;;;26.27;25.52;94530.47;5086118;28;20496;-36
2022/10/05 10:47:00;;;;;;;0.10;0.10;;;;;;;26.33;26.82;94527.94;5067341;28;20031;-36
2022/10/05 10:49:29;;;;;;;0.00;0.00;;;;;;;26.60;25.77;94521.56;5065858;28;20035;-36
2022/10/05 10:52:04;;;;;;;0.10;0.10;;;;;;;27.11;25.75;94522.03;5084648;28;20033;-37
2022/10/05 10:54:52;;;;;;;0.10;0.10;;;;;;;27.39;24.44;94517.06;5070416;28;20029;-36
2022/10/05 10:57:32;;;;;;;2.00;0.30;;;;;;;27.33;25.02;94517.44;5093142;28;20099;-36
2022/10/05 11:00:27;;;;;;;0.43;0.32;;;;;;;26.95;24.29;94516.31;5088188;28;20089;-37
2022/10/05 11:03:11;;;;;;;0.25;0.25;;;;;;;25.85;25.38;94521.78;5066560;28;20033;-36
2022/10/05 11:05:56;;;;;;;0.10;0.10;;;;;;;25.37;27.38;94505.69;5088658;28;20020;-36
2022/10/05 11:08:27;;;;;;;0.32;0.15;;;;;;;25.54;27.77;94519.38;5082785;28;20048;-36
2022/10/05 11:11:11;;;;;;;0.13;0.13;;;;;;;25.70;26.35;94506.16;5089714;28;20051;-36
2022/10/05 11:14:01;;;;;;;0.52;0.40;;;;;;;25.58;26.82;94507.56;5085098;28;20492;-36
2022/10/05 11:16:45;;;;;;;0.25;0.25;;;;;;;25.01;28.55;94503.63;5086592;28;20027;-36
2022/10/05 11:19:20;;;;;;;0.45;0.40;;;;;;;24.83;26.87;94503.31;5070082;28;20023;-36
2022/10/05 11:22:23;;;;;;;0.00;0.00;;;;;;;25.07;27.26;94506.81;5080678;28;20509;-36
2022/10/05 11:24:54;;;;;;;0.10;0.10;;;;;;;25.36;27.31;94515.53;5082200;28;20020;-36
2022/10/05 11:27:36;;;;;;;0.35;0.35;;;;;;;25.64;26.66;94500.16;5083288;28;20039;-36
2022/10/05 11:30:10;;;;;;;0.10;0.10;;;;;;;25.99;26.67;94497.09;5069394;28;20413;-37
2022/10/05 11:32:47;;;;;;;0.30;0.20;;;;;;;25.83;25.56;94496.94;5086770;28;20024;-36
2022/10/05 11:35:15;;;;;;;1.58;0.43;;;;;;;25.86;25.90;94483.66;5083268;28;20518;-36
2022/10/05 11:37:47;;;;;;;0.00;0.00;;;;;;;25.14;26.01;94500.88;5085607;28;20053;-36
2022/10/05 11:40:32;;;;;;;0.55;0.55;;;;;;;24.42;26.30;94505.09;5062989;28;20813;-36
2022/10/05 11:43:32;;;;;;;0.08;0.08;;;;;;;24.81;25.32;94495.47;5084368;28;20408;-36
2022/10/05 11:46:22;;;;;;;0.10;0.10;;;;;;;24.43;25.11;94495.28;5081782;28;20447;-36
2022/10/05 11:49:02;;;;;;;0.00;0.00;;;;;;;22.83;25.80;94498.66;5079790;28;20047;-36
2022/10/05 11:52:03;;;;;;;0.20;0.20;;;;;;;22.18;28.81;94493.59;5081019;28;20024;-35
2022/10/05 11:55:06;;;;;;;0.20;0.20;;;;;;;21.59;29.61;94491.59;5086545;28;20511;-35
2022/10/05 11:57:45;;;;;;;0.10;0.10;;;;;;;22.19;29.77;94491.53;5089138;28;20023;-36
2022/10/05 12:00:11;;;;;;;0.47;0.47;;;;;;;21.98;29.82;94491.50;5086644;28;20507;-36
2022/10/05 12:03:03;;;;;;;0.20;0.20;;;;;;;21.38;31.43;94488.72;5078993;28;20016;-36
2022/10/05 12:05:31;;;;;;;0.20;0.20;;;;;;;20.64;32.21;94495.28;5084230;28;20505;-36
2022/10/05 12:08:03;;;;;;;0.20;0.20;;;;;;;20.07;32.97;94498.00;5080610;28;20020;-36
2022/10/05 12:10:47;;;;;;;0.22;0.22;;;;;;;20.45;32.66;94498.09;5084464;28;20035;-36
2022/10/05 12:13:32;;;;;;;0.73;0.30;;;;;;;20.83;33.30;94489.69;5064713;28;20696;-36
2022/10/05 12:15:58;;;;;;;0.10;0.10;;;;;;;21.05;32.21;94490.59;5084107;28;20036;-36
2022/10/05 12:18:30;;;;;;;0.10;0.10;;;;;;;21.16;30.97;94478.00;5066377;28;20055;-36
2022/10/05 12:21:16;;;;;;;0.10;0.10;;;;;;;20.92;32.14;94486.13;5081803;28;20535;-36
2022/10/05 12:24:01;;;;;;;0.20;0.20;;;;;;;21.18;32.56;94492.19;5084500;28;20442;-36
2022/10/05 12:26:57;;;;;;;0.93;0.52;;;;;;;21.27;32.52;94483.00;5080720;28;20118;-36
2022/10/05 12:29:26;;;;;;;2.38;1.17;;;;;;;21.35;33.95;94489.19;5051048;28;20044;-36
2022/10/05 12:32:16;;;;;;;0.20;0.20;;;;;;;21.56;33.67;94487.19;5084523;28;20029;-35
2022/10/05 12:34:56;;;;;;;0.10;0.10;;;;;;;21.22;32.32;94495.28;5057805;28;20526;-35
2022/10/05 12:37:52;;;;;;;0.50;0.50;;;;;;;21.20;29.89;94500.75;5083102;28;20025;-35
2022/10/05 12:40:25;;;;;;;0.80;0.80;;;;;;;21.48;30.06;94497.13;5065077;28;20111;-36
2022/10/05 12:43:22;;;;;;;0.90;0.63;;;;;;;21.48;31.39;94495.06;5066662;28;20106;-36
2022/10/05 12:45:48;;;;;;;0.20;0.20;;;;;;;21.48;31.80;94499.94;5078853;28;20119;-36
2022/10/05 12:48:32;;;;;;;0.13;0.13;;;;;;;21.08;31.31;94501.34;5080556;28;20547;-36